You are listening to:
RJTT Approach - Tokyo, Japan

RJTT 240330Z 17010KT CAVOK 26/17 Q1005 NOSIG

If stream doesn't start automatically press the play button
If stream stops then reload player then press play